Time;durP1;ratioP1;P1;durP2;ratioP2;P2;SDS_P1;SDS_P2;PMS_P1;PMS_P2;Temp;Humidity;BMP_temperature;BMP_pressure;BME280_temperature;BME280_humidity;BME280_pressure;Samples;Min_cycle;Max_cycle;Signal;HPM_P1;HPM_P2
2021/06/28 00:00:17;;;;;;;3.42;3.13;;;19.10;65.60;;;;;;5091026;28;20040;-74
2021/06/28 00:02:45;;;;;;;3.67;3.38;;;19.10;65.60;;;;;;5105306;28;20062;-73
2021/06/28 00:05:17;;;;;;;3.20;2.90;;;19.10;65.50;;;;;;5108746;28;20455;-73
2021/06/28 00:07:47;;;;;;;4.82;3.60;;;19.10;65.50;;;;;;5088190;28;20074;-73
2021/06/28 00:10:26;;;;;;;3.97;3.10;;;19.10;65.40;;;;;;5100347;28;20355;-72
2021/06/28 00:13:04;;;;;;;2.95;2.70;;;19.00;65.40;;;;;;5101255;28;20043;-74
2021/06/28 00:15:39;;;;;;;4.00;3.40;;;19.00;65.40;;;;;;5109753;28;20457;-74
2021/06/28 00:18:09;;;;;;;3.60;3.30;;;19.00;65.40;;;;;;5093971;28;20048;-73
2021/06/28 00:20:37;;;;;;;4.18;2.88;;;19.00;65.40;;;;;;5116570;28;20058;-73
2021/06/28 00:23:05;;;;;;;3.42;3.00;;;19.00;65.40;;;;;;5100757;28;20062;-73
2021/06/28 00:25:33;;;;;;;3.60;3.05;;;19.00;65.40;;;;;;5086091;28;20061;-73
2021/06/28 00:28:03;;;;;;;3.72;3.42;;;19.00;65.30;;;;;;5109145;28;20055;-74
2021/06/28 00:30:36;;;;;;;3.60;3.10;;;19.00;65.30;;;;;;5088870;28;20043;-74
2021/06/28 00:33:06;;;;;;;3.50;3.20;;;19.00;65.30;;;;;;5093816;28;20059;-72
2021/06/28 00:35:35;;;;;;;4.50;3.20;;;19.00;65.30;;;;;;5087692;28;20043;-74
2021/06/28 00:38:05;;;;;;;3.38;3.05;;;19.00;65.30;;;;;;5076555;28;20040;-74
2021/06/28 00:40:34;;;;;;;4.10;3.75;;;19.00;65.30;;;;;;5087898;28;20040;-73
2021/06/28 00:43:03;;;;;;;3.90;3.35;;;19.00;65.30;;;;;;5100699;28;20461;-73
2021/06/28 00:45:37;;;;;;;5.10;3.50;;;18.90;65.30;;;;;;5092102;28;20044;-72
2021/06/28 00:48:07;;;;;;;4.00;3.55;;;18.90;65.30;;;;;;5114129;28;20461;-72
2021/06/28 00:50:44;;;;;;;4.80;3.40;;;18.90;65.30;;;;;;5065210;28;20051;-73
2021/06/28 00:53:14;;;;;;;6.00;3.30;;;18.90;65.30;;;;;;5097209;28;20052;-73
2021/06/28 00:55:47;;;;;;;7.55;3.42;;;18.90;65.30;;;;;;5106761;28;20056;-73
2021/06/28 00:58:15;;;;;;;3.95;3.15;;;18.90;65.30;;;;;;5108574;28;20047;-73
2021/06/28 01:00:45;;;;;;;3.83;3.53;;;18.80;65.30;;;;;;5102620;28;20047;-73
2021/06/28 01:03:13;;;;;;;4.25;3.85;;;18.90;65.30;;;;;;5103617;28;20540;-74
2021/06/28 01:05:42;;;;;;;5.32;4.25;;;18.80;65.30;;;;;;5108907;28;20063;-73
2021/06/28 01:08:11;;;;;;;5.03;4.13;;;18.80;65.30;;;;;;5080021;28;20058;-73
2021/06/28 01:10:39;;;;;;;4.65;4.07;;;18.80;65.30;;;;;;5100279;28;20043;-73
2021/06/28 01:13:08;;;;;;;4.65;4.10;;;18.80;65.30;;;;;;5109788;28;20043;-72
2021/06/28 01:15:37;;;;;;;4.43;4.07;;;18.80;65.30;;;;;;5101028;28;20048;-73
2021/06/28 01:18:08;;;;;;;4.45;4.05;;;18.80;65.30;;;;;;5106514;28;20056;-73
2021/06/28 01:20:37;;;;;;;4.88;4.47;;;18.80;65.30;;;;;;5090776;28;20059;-73
2021/06/28 01:23:25;;;;;;;5.25;4.72;;;18.80;65.30;;;;;;5104240;28;20048;-74
2021/06/28 01:26:07;;;;;;;4.50;4.15;;;18.80;65.30;;;;;;5085693;28;20052;-74
2021/06/28 01:28:36;;;;;;;5.15;4.25;;;18.80;65.20;;;;;;5076533;28;20573;-73
2021/06/28 01:31:07;;;;;;;4.57;4.18;;;18.80;65.20;;;;;;5081930;28;20458;-73
2021/06/28 01:33:37;;;;;;;4.82;4.43;;;18.80;65.30;;;;;;5103626;28;20059;-73
2021/06/28 01:36:06;;;;;;;4.30;3.90;;;18.80;65.30;;;;;;5100667;28;20059;-74
2021/06/28 01:38:39;;;;;;;4.63;4.22;;;18.80;65.30;;;;;;5091138;28;20044;-73
2021/06/28 01:41:07;;;;;;;4.70;4.30;;;18.80;65.30;;;;;;5108932;28;20066;-73
2021/06/28 01:43:35;;;;;;;4.60;4.20;;;18.80;65.30;;;;;;5109981;28;20524;-72
2021/06/28 01:46:03;;;;;;;4.60;4.20;;;18.80;65.30;;;;;;5109512;28;20055;-73
2021/06/28 01:48:31;;;;;;;5.00;4.35;;;18.80;65.30;;;;;;5109288;28;20055;-73
2021/06/28 01:50:59;;;;;;;5.20;4.30;;;18.80;65.30;;;;;;5070763;28;20039;-73
2021/06/28 01:53:27;;;;;;;4.85;4.32;;;18.80;65.30;;;;;;5100312;28;20058;-74
2021/06/28 01:55:56;;;;;;;4.90;4.45;;;18.70;65.30;;;;;;5103925;28;20048;-72
2021/06/28 01:58:24;;;;;;;4.82;4.43;;;18.80;65.30;;;;;;5089742;28;20048;-73
2021/06/28 02:00:54;;;;;;;4.20;3.88;;;18.80;65.30;;;;;;5086101;28;20055;-73
2021/06/28 02:03:24;;;;;;;4.20;3.80;;;18.70;65.30;;;;;;5107442;28;20043;-72
2021/06/28 02:05:56;;;;;;;4.03;3.72;;;18.70;65.30;;;;;;5106375;28;20190;-73
2021/06/28 02:08:28;;;;;;;4.30;3.90;;;18.70;65.30;;;;;;5074576;28;20066;-74
2021/06/28 02:10:59;;;;;;;4.25;3.85;;;18.70;65.30;;;;;;5101379;28;20401;-73
2021/06/28 02:13:30;;;;;;;4.28;3.97;;;18.70;65.30;;;;;;5081527;28;20066;-73
2021/06/28 02:15:59;;;;;;;4.20;3.90;;;18.70;65.30;;;;;;5082978;28;20043;-72
2021/06/28 02:18:28;;;;;;;4.00;3.70;;;18.70;65.30;;;;;;5103518;28;20043;-74
2021/06/28 02:20:57;;;;;;;3.95;3.65;;;18.70;65.30;;;;;;5076109;28;20393;-73
2021/06/28 02:23:26;;;;;;;4.05;3.65;;;18.70;65.30;;;;;;5101547;28;20047;-73
2021/06/28 02:25:58;;;;;;;3.53;3.22;;;18.70;65.30;;;;;;5112171;28;20063;-74
2021/06/28 02:28:29;;;;;;;3.55;3.25;;;18.70;65.30;;;;;;5097509;28;20040;-74
2021/06/28 02:31:00;;;;;;;3.85;3.60;;;18.70;65.30;;;;;;5113142;28;20058;-73
2021/06/28 02:33:28;;;;;;;3.42;3.22;;;18.60;65.30;;;;;;5097318;28;20055;-73
2021/06/28 02:35:57;;;;;;;3.88;3.58;;;18.70;65.30;;;;;;5097391;28;20062;-74
2021/06/28 02:38:25;;;;;;;3.88;3.45;;;18.70;65.30;;;;;;5094087;28;20055;-72
2021/06/28 02:40:54;;;;;;;3.47;3.17;;;18.70;65.30;;;;;;5107555;28;20373;-74
2021/06/28 02:43:42;;;;;;;3.50;3.20;;;18.60;65.30;;;;;;5040118;28;20052;-73
2021/06/28 02:46:11;;;;;;;4.07;3.30;;;18.70;65.30;;;;;;5094724;28;20059;-73
2021/06/28 02:48:40;;;;;;;3.75;3.45;;;18.60;65.40;;;;;;5102295;28;20477;-74
2021/06/28 02:51:11;;;;;;;3.55;3.25;;;18.60;65.40;;;;;;5095601;28;20385;-74
2021/06/28 02:53:39;;;;;;;3.50;3.20;;;18.60;65.40;;;;;;5082853;28;20476;-74
2021/06/28 02:56:12;;;;;;;3.55;3.25;;;18.60;65.40;;;;;;5111151;28;20066;-74
2021/06/28 02:58:43;;;;;;;4.45;3.40;;;18.60;65.40;;;;;;5076981;28;20036;-73
2021/06/28 03:01:14;;;;;;;3.92;3.13;;;18.60;65.40;;;;;;5110040;28;20048;-73
2021/06/28 03:03:56;;;;;;;4.38;3.15;;;18.60;65.40;;;;;;4962275;27;3710014;-75
2021/06/28 03:06:41;;;;;;;3.58;3.25;;;18.60;65.40;;;;;;4959293;27;3746986;-75
2021/06/28 03:09:21;;;;;;;3.88;3.47;;;18.60;65.40;;;;;;5018159;27;2853813;-73
2021/06/28 03:12:05;;;;;;;3.63;3.30;;;18.50;65.40;;;;;;5032612;27;2368718;-74
2021/06/28 03:14:47;;;;;;;3.50;3.20;;;18.50;65.40;;;;;;5047954;27;1947273;-74
2021/06/28 03:17:33;;;;;;;3.35;3.05;;;18.50;65.40;;;;;;5103340;27;20424;-75
2021/06/28 03:20:32;;;;;;;3.60;3.30;;;18.60;65.40;;;;;;4987437;27;3692244;-75
2021/06/28 03:23:21;;;;;;;3.33;3.03;;;18.50;65.40;;;;;;4986905;27;3095750;-74
2021/06/28 03:26:04;;;;;;;3.80;3.40;;;18.50;65.50;;;;;;5039795;27;2096611;-74
2021/06/28 03:28:47;;;;;;;3.67;3.22;;;18.50;65.50;;;;;;5079351;27;2038271;-73
2021/06/28 03:31:35;;;;;;;3.88;3.17;;;18.50;65.60;;;;;;5136326;27;20435;-74
2021/06/28 03:34:20;;;;;;;3.90;3.38;;;18.50;65.60;;;;;;5045672;27;2179797;-74
2021/06/28 03:37:04;;;;;;;3.38;3.08;;;18.50;65.50;;;;;;5033092;27;2177214;-73
2021/06/28 03:39:43;;;;;;;3.22;3.03;;;18.50;65.50;;;;;;5049252;27;2193070;-76
2021/06/28 03:42:26;;;;;;;3.65;3.35;;;18.50;65.50;;;;;;5068630;27;1320910;-75
2021/06/28 03:45:18;;;;;;;3.50;3.20;;;18.50;65.50;;;;;;5135439;27;20132;-72
2021/06/28 03:48:00;;;;;;;3.55;3.25;;;18.50;65.50;;;;;;5009780;27;2993369;-73
2021/06/28 03:50:42;;;;;;;3.70;3.40;;;18.40;65.40;;;;;;5043990;27;2126080;-76
2021/06/28 03:53:29;;;;;;;3.00;2.75;;;18.40;65.50;;;;;;5052503;27;2074561;-76
2021/06/28 03:56:14;;;;;;;3.53;3.20;;;18.40;65.50;;;;;;5135267;27;20132;-74
2021/06/28 03:58:55;;;;;;;3.90;3.20;;;18.40;65.50;;;;;;5041481;27;2142954;-74
2021/06/28 04:01:46;;;;;;;3.20;3.00;;;18.40;65.50;;;;;;5140647;27;20157;-73
2021/06/28 04:04:31;;;;;;;3.15;2.88;;;18.40;65.50;;;;;;5138818;27;20420;-73
2021/06/28 04:07:11;;;;;;;3.20;2.90;;;18.40;65.50;;;;;;5035230;27;2214933;-73
2021/06/28 04:09:52;;;;;;;3.30;3.00;;;18.40;65.50;;;;;;5006439;27;3142594;-73
2021/06/28 04:12:38;;;;;;;3.40;3.10;;;18.40;65.50;;;;;;5043283;27;2077690;-76
2021/06/28 04:15:20;;;;;;;3.35;3.05;;;18.40;65.60;;;;;;5139366;27;20386;-73
2021/06/28 04:18:07;;;;;;;3.10;2.90;;;18.40;65.60;;;;;;4975600;27;4007248;-74
2021/06/28 04:20:47;;;;;;;3.58;3.28;;;18.40;65.50;;;;;;5055017;27;2141338;-72
2021/06/28 04:23:27;;;;;;;3.25;3.05;;;18.40;65.40;;;;;;5039634;27;2196824;-75
2021/06/28 04:26:09;;;;;;;3.55;3.25;;;18.40;65.40;;;;;;5006728;27;3010965;-75
2021/06/28 04:28:49;;;;;;;3.30;3.00;;;18.50;65.40;;;;;;4964292;27;3955742;-75
2021/06/28 04:31:30;;;;;;;3.58;3.20;;;18.40;65.30;;;;;;5053625;27;1799523;-73
2021/06/28 04:34:10;;;;;;;3.40;3.20;;;18.40;65.30;;;;;;5068432;27;1445402;-73
2021/06/28 04:36:56;;;;;;;3.88;3.13;;;18.40;65.30;;;;;;5030797;27;2242928;-73
2021/06/28 04:39:38;;;;;;;3.50;3.20;;;18.40;65.30;;;;;;5027642;27;2345256;-73
2021/06/28 04:42:26;;;;;;;3.15;2.95;;;18.40;65.30;;;;;;5041995;27;2122594;-74
2021/06/28 04:45:12;;;;;;;3.33;3.03;;;18.40;65.30;;;;;;5037358;27;2456076;-75
2021/06/28 04:47:51;;;;;;;3.30;3.00;;;18.40;65.30;;;;;;5011931;27;3233753;-75
2021/06/28 04:50:32;;;;;;;3.13;2.92;;;18.40;65.30;;;;;;5071553;27;1364866;-72
2021/06/28 04:53:12;;;;;;;3.42;3.05;;;18.40;65.30;;;;;;5016681;27;3075217;-73
2021/06/28 04:55:54;;;;;;;5.13;3.42;;;18.40;65.20;;;;;;5026424;27;2492576;-75
2021/06/28 04:58:35;;;;;;;3.30;3.00;;;18.50;65.20;;;;;;5077811;27;1344197;-75
2021/06/28 05:01:17;;;;;;;3.13;2.92;;;18.50;65.10;;;;;;5050868;27;2044986;-75
2021/06/28 05:03:58;;;;;;;3.85;3.03;;;18.50;65.10;;;;;;5062150;27;1453312;-76
2021/06/28 05:06:47;;;;;;;3.10;2.80;;;18.50;65.00;;;;;;5097884;28;20052;-75
2021/06/28 05:09:28;;;;;;;3.10;2.90;;;18.50;65.00;;;;;;5072617;27;1360449;-72
2021/06/28 05:12:09;;;;;;;3.17;2.97;;;18.50;65.00;;;;;;5045739;27;2305174;-73
2021/06/28 05:14:50;;;;;;;3.17;2.95;;;18.50;64.90;;;;;;5059190;27;1326992;-74
2021/06/28 05:17:32;;;;;;;3.40;3.10;;;18.50;64.90;;;;;;5020092;27;2045595;-75
2021/06/28 05:20:14;;;;;;;3.13;2.90;;;18.50;64.90;;;;;;4966110;27;3717455;-75
2021/06/28 05:22:55;;;;;;;3.08;2.88;;;18.50;64.90;;;;;;5038560;27;2173178;-75
2021/06/28 05:25:36;;;;;;;3.30;3.00;;;18.50;64.90;;;;;;5036183;27;2296238;-74
2021/06/28 05:28:17;;;;;;;5.13;3.00;;;18.50;64.90;;;;;;5049058;27;1923381;-75
2021/06/28 05:30:57;;;;;;;3.10;2.90;;;18.50;64.90;;;;;;5033248;27;2466898;-75
2021/06/28 05:33:35;;;;;;;3.50;3.20;;;18.50;64.90;;;;;;5028282;27;2250885;-73
2021/06/28 05:36:17;;;;;;;3.60;3.30;;;18.40;64.90;;;;;;5023399;27;2686797;-75
2021/06/28 05:38:58;;;;;;;3.20;2.95;;;18.50;64.90;;;;;;5047758;27;2084297;-72
2021/06/28 05:41:37;;;;;;;3.22;2.97;;;18.50;64.90;;;;;;5029422;27;2064201;-73
2021/06/28 05:44:18;;;;;;;3.10;2.80;;;18.40;64.90;;;;;;5074452;27;1317317;-75
2021/06/28 05:46:57;;;;;;;2.97;2.70;;;18.40;64.90;;;;;;4950671;27;4353512;-74
2021/06/28 05:49:40;;;;;;;2.67;2.47;;;18.40;64.90;;;;;;5042458;27;1634764;-73
2021/06/28 05:52:21;;;;;;;3.00;2.80;;;18.40;64.90;;;;;;5057665;27;1642803;-75
2021/06/28 05:55:00;;;;;;;3.15;2.60;;;18.40;64.90;;;;;;4994618;27;3408399;-73
2021/06/28 05:57:44;;;;;;;2.73;2.53;;;18.40;64.90;;;;;;5046594;27;2148301;-75
2021/06/28 06:00:27;;;;;;;3.10;2.83;;;18.40;64.90;;;;;;5080347;27;1276702;-75
2021/06/28 06:03:12;;;;;;;2.90;2.70;;;18.40;64.90;;;;;;5006888;27;3316711;-72
2021/06/28 06:05:55;;;;;;;2.60;2.40;;;18.40;64.80;;;;;;5030112;27;2359512;-72
2021/06/28 06:08:37;;;;;;;3.08;2.88;;;18.40;64.80;;;;;;5038827;27;2372079;-75
2021/06/28 06:11:19;;;;;;;2.65;2.45;;;18.40;64.80;;;;;;4934677;27;5287009;-72
2021/06/28 06:14:04;;;;;;;2.73;2.53;;;18.40;64.80;;;;;;5038644;27;2178309;-74
2021/06/28 06:16:46;;;;;;;2.50;2.30;;;18.50;64.70;;;;;;5030666;27;2233126;-74
2021/06/28 06:19:26;;;;;;;2.97;2.78;;;18.50;64.70;;;;;;5046920;27;2089454;-72
2021/06/28 06:22:11;;;;;;;2.85;2.65;;;18.50;64.80;;;;;;4936539;27;4089990;-73
2021/06/28 06:24:56;;;;;;;3.10;2.75;;;18.40;64.80;;;;;;5136073;27;20425;-75
2021/06/28 06:27:42;;;;;;;2.65;2.45;;;18.50;64.80;;;;;;5138199;27;20420;-72
2021/06/28 06:30:27;;;;;;;3.03;2.72;;;18.50;64.90;;;;;;5122472;27;20419;-75
2021/06/28 06:33:10;;;;;;;3.70;2.85;;;18.50;65.00;;;;;;5080472;27;1349007;-72
2021/06/28 06:35:56;;;;;;;2.92;2.72;;;18.50;64.90;;;;;;5139364;27;20750;-74
2021/06/28 06:38:37;;;;;;;2.63;2.42;;;18.50;65.00;;;;;;5061382;27;1601040;-72
2021/06/28 06:41:22;;;;;;;4.18;2.67;;;18.50;65.00;;;;;;5138252;27;20415;-74
2021/06/28 06:44:08;;;;;;;3.20;2.90;;;18.50;64.90;;;;;;5134886;27;20417;-74
2021/06/28 06:46:50;;;;;;;2.88;2.67;;;18.50;64.90;;;;;;4998614;27;2406576;-72
2021/06/28 06:49:36;;;;;;;2.70;2.50;;;18.50;64.90;;;;;;5134911;27;20408;-74
2021/06/28 06:52:20;;;;;;;2.80;2.60;;;18.50;64.90;;;;;;5027921;27;2086373;-73
2021/06/28 06:55:06;;;;;;;2.97;2.78;;;18.50;64.90;;;;;;5140411;27;20426;-74
2021/06/28 06:57:53;;;;;;;2.95;2.70;;;18.50;64.80;;;;;;5035217;27;2349534;-74
2021/06/28 07:00:43;;;;;;;2.72;2.53;;;18.60;64.80;;;;;;5116985;27;20414;-72
2021/06/28 07:03:28;;;;;;;2.72;2.53;;;18.60;64.80;;;;;;5144977;27;20127;-74
2021/06/28 07:06:15;;;;;;;2.90;2.70;;;18.70;64.70;;;;;;5026879;27;2442102;-73
2021/06/28 07:08:57;;;;;;;3.10;2.40;;;18.60;64.60;;;;;;4955197;27;4157737;-72
2021/06/28 07:11:39;;;;;;;2.60;2.40;;;18.70;64.60;;;;;;5060412;27;1698262;-75
2021/06/28 07:14:21;;;;;;;3.83;2.33;;;18.70;64.50;;;;;;4999827;27;3306874;-75
2021/06/28 07:17:05;;;;;;;2.28;2.08;;;18.70;64.50;;;;;;5110230;27;20412;-74
2021/06/28 07:19:47;;;;;;;2.13;1.92;;;18.70;64.40;;;;;;5040408;27;2293527;-74
2021/06/28 07:22:27;;;;;;;2.63;2.42;;;18.80;64.30;;;;;;4881680;27;6146028;-75
2021/06/28 07:25:14;;;;;;;2.25;2.15;;;18.80;64.20;;;;;;5138367;27;20410;-71
2021/06/28 07:27:54;;;;;;;2.38;2.17;;;18.90;64.10;;;;;;5009057;27;3020315;-73
2021/06/28 07:30:38;;;;;;;2.42;2.20;;;18.90;63.90;;;;;;5041703;27;1771976;-72
2021/06/28 07:33:27;;;;;;;2.58;2.38;;;19.00;63.80;;;;;;5119976;27;20755;-72
2021/06/28 07:36:30;;;;;;;2.58;2.33;;;19.00;63.70;;;;;;5125172;27;20890;-77
2021/06/28 07:39:11;;;;;;;4.90;2.70;;;19.10;63.60;;;;;;4957810;27;4322313;-83
2021/06/28 07:41:51;;;;;;;2.43;2.17;;;19.10;63.60;;;;;;4947276;27;4825277;-78
2021/06/28 07:44:34;;;;;;;3.50;2.30;;;19.10;63.80;;;;;;5006807;27;2984899;-78
2021/06/28 07:47:25;;;;;;;3.13;2.55;;;19.10;63.80;;;;;;5125506;27;20861;-77
2021/06/28 07:50:07;;;;;;;2.58;2.30;;;19.20;63.90;;;;;;5073597;27;1312729;-78
2021/06/28 07:52:48;;;;;;;5.75;2.55;;;19.20;64.00;;;;;;5044828;27;2098575;-80
2021/06/28 07:55:35;;;;;;;4.60;2.28;;;19.20;64.00;;;;;;4985722;27;4328722;-78
2021/06/28 07:58:21;;;;;;;2.40;2.20;;;19.20;64.00;;;;;;5121587;27;20424;-81
2021/06/28 08:01:02;;;;;;;3.30;2.05;;;19.30;64.00;;;;;;5056592;27;1677010;-74
2021/06/28 08:03:47;;;;;;;3.70;2.40;;;19.30;64.00;;;;;;5135385;27;20797;-76
2021/06/28 08:06:31;;;;;;;3.65;2.40;;;19.30;63.90;;;;;;5131061;27;20429;-73
2021/06/28 08:09:19;;;;;;;2.58;2.30;;;19.30;63.90;;;;;;5057526;27;1710889;-74
2021/06/28 08:12:06;;;;;;;9.52;2.60;;;19.30;64.00;;;;;;4979576;27;4380915;-74
2021/06/28 08:14:51;;;;;;;6.47;2.25;;;19.30;63.90;;;;;;5119000;27;20424;-78
2021/06/28 08:17:35;;;;;;;3.00;2.08;;;19.30;63.90;;;;;;5117770;27;20881;-77
2021/06/28 08:20:21;;;;;;;5.32;2.40;;;19.30;63.90;;;;;;5147057;27;20414;-76
2021/06/28 08:23:02;;;;;;;8.15;2.75;;;19.30;64.00;;;;;;4947867;27;3012170;-74
2021/06/28 08:25:52;;;;;;;4.75;2.45;;;19.30;64.10;;;;;;5119029;27;20550;-72
2021/06/28 08:28:36;;;;;;;4.47;2.65;;;19.30;64.30;;;;;;5045129;27;2280675;-73
2021/06/28 08:31:17;;;;;;;8.45;2.92;;;19.30;64.60;;;;;;5044549;27;2123768;-73
2021/06/28 08:34:23;;;;;;;5.80;2.70;;;19.30;64.80;;;;;;5100187;27;20414;-73
2021/06/28 08:37:09;;;;;;;6.47;2.97;;;19.40;65.00;;;;;;4988708;27;4029310;-75
2021/06/28 08:39:55;;;;;;;7.30;2.80;;;19.40;65.10;;;;;;5123142;27;20423;-76
2021/06/28 08:42:41;;;;;;;3.45;2.53;;;19.40;65.30;;;;;;5105230;28;20047;-77
2021/06/28 08:45:32;;;;;;;4.40;2.80;;;19.50;65.20;;;;;;5068489;27;1506305;-74
2021/06/28 08:48:12;;;;;;;5.57;2.88;;;19.50;65.10;;;;;;5068000;27;1301361;-76
2021/06/28 08:50:54;;;;;;;7.97;3.50;;;19.50;65.00;;;;;;4939158;27;4894345;-77
2021/06/28 08:53:38;;;;;;;7.68;3.17;;;19.50;64.80;;;;;;5135295;27;20132;-76
2021/06/28 08:56:22;;;;;;;6.50;3.08;;;19.60;64.70;;;;;;5130488;27;20384;-75
2021/06/28 08:59:07;;;;;;;8.35;3.30;;;19.60;64.70;;;;;;5134737;27;20412;-75
2021/06/28 09:01:54;;;;;;;4.53;3.28;;;19.60;64.50;;;;;;5009824;27;3040131;-77
2021/06/28 09:05:05;;;;;;;5.82;3.60;;;19.60;64.40;;;;;;5046164;27;2010453;-75
2021/06/28 09:08:09;;;;;;;5.60;3.45;;;19.70;64.30;;;;;;5134893;27;20400;-77
2021/06/28 09:11:00;;;;;;;5.53;3.28;;;19.70;64.20;;;;;;5113633;27;20404;-76
2021/06/28 09:13:49;;;;;;;3.38;3.00;;;19.70;64.10;;;;;;5098037;27;20378;-77
2021/06/28 09:16:41;;;;;;;5.13;3.00;;;19.70;64.10;;;;;;5002865;27;3180255;-74
2021/06/28 09:19:26;;;;;;;3.85;3.50;;;19.80;64.00;;;;;;5031297;27;1811833;-76
2021/06/28 09:22:29;;;;;;;6.70;3.53;;;19.80;64.00;;;;;;5111646;27;20746;-77
2021/06/28 09:25:34;;;;;;;5.07;3.55;;;19.70;63.90;;;;;;5041682;27;2197567;-77
2021/06/28 09:28:42;;;;;;;8.95;3.78;;;19.80;63.90;;;;;;5136674;27;20412;-75
2021/06/28 09:31:37;;;;;;;5.32;3.40;;;19.80;63.80;;;;;;4959841;27;4739982;-77
2021/06/28 09:34:25;;;;;;;8.65;3.63;;;19.80;63.80;;;;;;4970552;27;4194789;-76
2021/06/28 09:37:14;;;;;;;6.45;3.47;;;19.70;63.80;;;;;;4990294;27;2223001;-76
2021/06/28 09:39:59;;;;;;;4.00;3.53;;;19.80;63.80;;;;;;5068763;27;1394635;-75
2021/06/28 09:42:45;;;;;;;4.90;3.88;;;19.80;63.80;;;;;;5054960;27;1769221;-73
2021/06/28 09:45:28;;;;;;;5.53;3.75;;;19.80;63.90;;;;;;5058290;27;1620507;-73
2021/06/28 09:48:31;;;;;;;6.90;3.97;;;19.80;63.90;;;;;;5144784;27;20419;-73
2021/06/28 09:51:21;;;;;;;7.25;3.80;;;19.80;64.00;;;;;;5077118;27;1426911;-74
2021/06/28 09:54:35;;;;;;;7.28;3.80;;;19.80;63.90;;;;;;4425178;27;18954102;-74
2021/06/28 09:57:17;;;;;;;5.32;4.00;;;19.90;63.80;;;;;;4006252;27;30850019;-75
2021/06/28 09:59:59;;;;;;;6.93;3.70;;;20.00;63.90;;;;;;4427794;27;19523669;-77
2021/06/28 10:02:51;;;;;;;5.15;3.92;;;20.00;63.90;;;;;;4565277;27;16184907;-75
2021/06/28 10:05:57;;;;;;;5.30;4.07;;;20.10;63.90;;;;;;4348978;27;20834338;-73
2021/06/28 10:08:43;;;;;;;8.23;3.92;;;20.10;63.90;;;;;;4449631;27;18781081;-72
2021/06/28 10:11:24;;;;;;;5.95;4.25;;;20.20;63.90;;;;;;4515168;27;16845156;-81
2021/06/28 10:14:10;;;;;;;6.20;3.90;;;20.20;63.90;;;;;;4381377;27;21184726;-75
2021/06/28 10:17:14;;;;;;;6.68;4.13;;;20.20;63.90;;;;;;5079378;28;20385;-76
2021/06/28 10:20:32;;;;;;;6.22;3.75;;;20.30;63.90;;;;;;5090417;28;20368;-74
2021/06/28 10:23:20;;;;;;;11.98;4.13;;;20.30;63.80;;;;;;4273662;27;23842187;-75
2021/06/28 10:26:28;;;;;;;13.70;4.80;;;20.40;63.70;;;;;;5119941;27;20363;-81
2021/06/28 10:29:43;;;;;;;8.13;4.22;;;20.40;63.60;;;;;;5152813;27;20138;-76
2021/06/28 10:32:31;;;;;;;13.35;4.53;;;20.40;63.50;;;;;;4447926;27;18342027;-78
2021/06/28 10:38:47;;;;;;;12.60;4.30;;;20.50;63.80;;;;;;4387428;27;20714650;-77
2021/06/28 10:41:50;;;;;;;12.30;4.78;;;20.40;63.80;;;;;;4440942;27;19588211;-79
2021/06/28 10:44:50;;;;;;;12.45;4.68;;;20.50;63.90;;;;;;5146219;27;20132;-80
2021/06/28 10:48:16;;;;;;;7.40;4.07;;;20.50;63.90;;;;;;5078834;28;20376;-77
2021/06/28 10:51:11;;;;;;;11.57;4.50;;;20.50;64.00;;;;;;4961658;27;4022449;-76
2021/06/28 10:54:00;;;;;;;11.27;4.30;;;20.50;63.90;;;;;;4515002;27;17025797;-77
2021/06/28 10:56:52;;;;;;;11.95;4.75;;;20.50;64.00;;;;;;5103405;28;20078;-79
2021/06/28 10:59:44;;;;;;;6.47;4.40;;;20.50;64.00;;;;;;5092958;28;20059;-78
2021/06/28 11:02:39;;;;;;;10.77;5.00;;;20.50;64.00;;;;;;5092280;28;20048;-79
2021/06/28 11:05:27;;;;;;;8.50;4.80;;;20.50;64.10;;;;;;5097046;28;20359;-78
2021/06/28 11:08:21;;;;;;;10.65;5.15;;;20.50;64.10;;;;;;5092047;28;20057;-78
2021/06/28 11:11:08;;;;;;;7.50;4.88;;;20.50;64.10;;;;;;5094737;28;20051;-78
2021/06/28 11:13:55;;;;;;;8.20;5.05;;;20.40;64.10;;;;;;5099566;28;20047;-78
2021/06/28 11:16:58;;;;;;;9.57;5.50;;;20.30;64.10;;;;;;5091666;28;20044;-78
2021/06/28 11:22:38;;;;;;;9.40;5.18;;;20.40;64.10;;;;;;5093018;28;20048;-79
2021/06/28 11:25:10;;;;;;;9.10;4.43;;;20.30;64.00;;;;;;5090484;28;20056;-78
2021/06/28 11:27:58;;;;;;;6.45;4.22;;;20.30;64.00;;;;;;4551271;27;16038089;-81
2021/06/28 11:31:16;;;;;;;6.15;4.50;;;20.30;63.90;;;;;;5146840;27;20393;-81
2021/06/28 11:34:03;;;;;;;6.63;4.25;;;20.30;63.90;;;;;;4252461;27;24968718;-79
2021/06/28 11:36:36;;;;;;;9.45;5.18;;;20.30;63.90;;;;;;5127483;28;20066;-79
2021/06/28 11:39:05;;;;;;;6.63;4.55;;;20.30;63.90;;;;;;5130795;27;20357;-78
2021/06/28 11:42:06;;;;;;;9.80;4.85;;;20.20;63.90;;;;;;4715964;27;10958663;-80
2021/06/28 11:44:57;;;;;;;8.23;4.60;;;20.20;63.90;;;;;;4553277;27;16211611;-80
2021/06/28 11:48:00;;;;;;;8.52;4.40;;;20.20;63.90;;;;;;5127829;27;20718;-80
2021/06/28 11:51:10;;;;;;;4.75;4.22;;;20.10;63.80;;;;;;5139764;27;20468;-80
2021/06/28 11:54:17;;;;;;;4.07;3.63;;;20.10;63.80;;;;;;5149299;27;20419;-81
2021/06/28 11:57:07;;;;;;;5.87;4.40;;;20.00;63.80;;;;;;4434177;27;19646618;-82
2021/06/28 11:59:50;;;;;;;5.60;3.65;;;20.00;63.80;;;;;;4374004;27;20936721;-80
2021/06/28 12:02:32;;;;;;;6.13;3.85;;;20.00;63.80;;;;;;3888603;27;33273151;-81
2021/06/28 12:05:30;;;;;;;4.22;3.83;;;20.00;63.90;;;;;;5136402;27;20425;-80
2021/06/28 12:08:26;;;;;;;5.72;3.65;;;20.00;63.90;;;;;;5103526;27;20379;-81
2021/06/28 12:11:36;;;;;;;3.88;3.42;;;20.00;64.00;;;;;;5162045;27;20427;-81
2021/06/28 12:14:38;;;;;;;7.20;3.85;;;20.00;64.10;;;;;;4563695;27;16061123;-80
2021/06/28 12:17:27;;;;;;;5.03;3.38;;;20.00;64.10;;;;;;4198790;27;24556922;-81
2021/06/28 12:20:34;;;;;;;4.80;3.40;;;20.00;64.10;;;;;;5138157;27;20425;-80
2021/06/28 12:23:24;;;;;;;4.38;3.72;;;20.00;64.20;;;;;;4178268;27;27444117;-80
2021/06/28 12:26:12;;;;;;;8.07;3.60;;;20.00;64.30;;;;;;4445908;27;18927400;-80
2021/06/28 12:28:58;;;;;;;5.28;3.65;;;20.00;64.30;;;;;;5125029;27;20412;-80
2021/06/28 12:31:38;;;;;;;6.90;3.30;;;19.90;64.30;;;;;;5056772;27;1765373;-80
2021/06/28 12:34:21;;;;;;;4.72;3.25;;;19.90;64.30;;;;;;5012331;27;3159299;-79
2021/06/28 12:37:07;;;;;;;3.63;3.33;;;19.90;64.30;;;;;;5115098;27;20413;-80
2021/06/28 12:39:48;;;;;;;4.05;3.40;;;19.90;64.40;;;;;;4917246;27;5858830;-80
2021/06/28 12:42:41;;;;;;;4.95;3.28;;;19.90;64.40;;;;;;5145053;27;20416;-80
2021/06/28 12:45:33;;;;;;;5.68;3.30;;;19.80;64.40;;;;;;5076445;27;1336212;-81
2021/06/28 12:48:17;;;;;;;5.25;3.53;;;19.80;64.50;;;;;;4966551;27;4317537;-80
2021/06/28 12:51:04;;;;;;;6.57;3.25;;;19.80;64.50;;;;;;4927474;27;3965026;-78
2021/06/28 12:53:45;;;;;;;5.78;3.13;;;19.80;64.50;;;;;;4970321;27;4041518;-80
2021/06/28 12:56:48;;;;;;;4.68;3.40;;;19.80;64.50;;;;;;5097604;27;20458;-80
2021/06/28 12:59:37;;;;;;;6.97;3.40;;;19.80;64.60;;;;;;4443545;27;19213782;-80
2021/06/28 13:02:28;;;;;;;7.37;3.30;;;19.80;64.60;;;;;;3813454;27;36219895;-80
2021/06/28 13:05:39;;;;;;;7.45;3.40;;;19.80;64.70;;;;;;5133415;27;20278;-80
2021/06/28 13:08:32;;;;;;;4.85;3.10;;;19.70;64.70;;;;;;4436849;27;19444427;-80
2021/06/28 13:11:17;;;;;;;5.63;3.33;;;19.70;64.70;;;;;;4015294;27;31053726;-80
2021/06/28 13:14:09;;;;;;;3.88;2.92;;;19.70;64.70;;;;;;4609469;27;15110063;-81
2021/06/28 13:17:03;;;;;;;8.02;3.42;;;19.70;64.80;;;;;;4577133;27;15216245;-80
2021/06/28 13:19:45;;;;;;;6.43;3.35;;;19.70;64.80;;;;;;4318046;27;21982216;-80
2021/06/28 13:22:42;;;;;;;4.85;3.03;;;19.60;64.80;;;;;;4566445;27;16098991;-81
2021/06/28 13:25:24;;;;;;;3.27;2.97;;;19.60;64.90;;;;;;4219979;27;25155700;-80
2021/06/28 13:28:23;;;;;;;5.82;3.15;;;19.60;64.90;;;;;;5121108;27;20419;-80
2021/06/28 13:31:27;;;;;;;4.20;2.83;;;19.60;64.90;;;;;;5127503;27;20887;-80
2021/06/28 13:34:35;;;;;;;4.00;2.88;;;19.60;65.00;;;;;;5117724;27;20392;-80
2021/06/28 13:37:37;;;;;;;4.95;3.13;;;19.60;65.00;;;;;;5130836;27;20432;-80
2021/06/28 13:41:00;;;;;;;4.43;3.00;;;19.60;65.00;;;;;;5128533;27;20465;-80
2021/06/28 13:43:45;;;;;;;4.82;2.92;;;19.60;65.00;;;;;;4431864;27;19170036;-79
2021/06/28 13:46:35;;;;;;;5.10;3.10;;;19.60;65.00;;;;;;4450969;27;18140751;-78
2021/06/28 13:49:25;;;;;;;4.38;2.83;;;19.60;65.00;;;;;;4565566;27;16123087;-81
2021/06/28 13:51:59;;;;;;;5.78;3.10;;;19.50;65.00;;;;;;5136054;27;20484;-78
2021/06/28 13:54:56;;;;;;;3.72;2.90;;;19.50;65.10;;;;;;5140886;27;20794;-80
2021/06/28 13:58:05;;;;;;;3.38;2.90;;;19.50;65.10;;;;;;5125038;27;20470;-78
2021/06/28 14:00:48;;;;;;;2.95;2.67;;;19.50;65.20;;;;;;4548197;27;16040772;-80
2021/06/28 14:03:50;;;;;;;5.70;2.90;;;19.50;65.20;;;;;;5086996;28;20932;-80
2021/06/28 14:07:09;;;;;;;3.30;2.88;;;19.50;65.20;;;;;;5152308;27;20418;-80